sensor_id;sensor_type;location;lat;lon;timestamp;P1;durP1;ratioP1;P2;durP2;ratioP2
38162;SDS011;23977;53.078;18.248;2022-09-14T00:02:21;26.77;;;21.33;;
38162;SDS011;23977;53.078;18.248;2022-09-14T00:04:46;27.25;;;22.27;;
38162;SDS011;23977;53.078;18.248;2022-09-14T00:07:12;26.65;;;21.48;;
38162;SDS011;23977;53.078;18.248;2022-09-14T00:09:37;26.83;;;21.65;;
38162;SDS011;23977;53.078;18.248;2022-09-14T00:12:03;29.70;;;22.90;;
38162;SDS011;23977;53.078;18.248;2022-09-14T00:14:29;27.33;;;22.20;;
38162;SDS011;23977;53.078;18.248;2022-09-14T00:16:54;29.30;;;24.15;;
38162;SDS011;23977;53.078;18.248;2022-09-14T00:19:20;29.20;;;23.73;;
38162;SDS011;23977;53.078;18.248;2022-09-14T00:21:50;28.15;;;22.20;;
38162;SDS011;23977;53.078;18.248;2022-09-14T00:24:16;36.28;;;25.73;;
38162;SDS011;23977;53.078;18.248;2022-09-14T00:26:42;32.92;;;26.23;;
38162;SDS011;23977;53.078;18.248;2022-09-14T00:29:08;31.23;;;25.42;;
38162;SDS011;23977;53.078;18.248;2022-09-14T00:31:35;31.98;;;26.35;;
38162;SDS011;23977;53.078;18.248;2022-09-14T00:34:00;32.70;;;25.13;;
38162;SDS011;23977;53.078;18.248;2022-09-14T00:36:27;33.35;;;25.60;;
38162;SDS011;23977;53.078;18.248;2022-09-14T00:38:53;32.63;;;26.63;;
38162;SDS011;23977;53.078;18.248;2022-09-14T00:41:21;31.65;;;26.02;;
38162;SDS011;23977;53.078;18.248;2022-09-14T00:46:19;33.67;;;26.63;;
38162;SDS011;23977;53.078;18.248;2022-09-14T00:48:44;30.17;;;23.58;;
38162;SDS011;23977;53.078;18.248;2022-09-14T00:51:10;32.35;;;25.65;;
38162;SDS011;23977;53.078;18.248;2022-09-14T00:53:36;31.98;;;26.08;;
38162;SDS011;23977;53.078;18.248;2022-09-14T00:56:01;29.92;;;24.25;;
38162;SDS011;23977;53.078;18.248;2022-09-14T00:58:27;27.73;;;24.13;;
38162;SDS011;23977;53.078;18.248;2022-09-14T01:00:52;30.17;;;24.50;;
38162;SDS011;23977;53.078;18.248;2022-09-14T01:03:18;30.50;;;25.17;;
38162;SDS011;23977;53.078;18.248;2022-09-14T01:06:04;27.38;;;22.85;;
38162;SDS011;23977;53.078;18.248;2022-09-14T01:08:37;29.33;;;24.75;;
38162;SDS011;23977;53.078;18.248;2022-09-14T01:11:15;29.20;;;24.05;;
38162;SDS011;23977;53.078;18.248;2022-09-14T01:13:56;30.23;;;24.83;;
38162;SDS011;23977;53.078;18.248;2022-09-14T01:16:26;30.58;;;24.63;;
38162;SDS011;23977;53.078;18.248;2022-09-14T01:18:59;30.10;;;24.13;;
38162;SDS011;23977;53.078;18.248;2022-09-14T01:21:27;30.85;;;24.50;;
38162;SDS011;23977;53.078;18.248;2022-09-14T01:26:46;32.53;;;24.90;;
38162;SDS011;23977;53.078;18.248;2022-09-14T01:29:15;34.30;;;26.85;;
38162;SDS011;23977;53.078;18.248;2022-09-14T01:31:48;31.48;;;25.63;;
38162;SDS011;23977;53.078;18.248;2022-09-14T01:37:00;34.63;;;27.88;;
38162;SDS011;23977;53.078;18.248;2022-09-14T01:39:28;33.38;;;27.35;;
38162;SDS011;23977;53.078;18.248;2022-09-14T01:41:55;35.03;;;27.52;;
38162;SDS011;23977;53.078;18.248;2022-09-14T01:44:30;34.92;;;26.67;;
38162;SDS011;23977;53.078;18.248;2022-09-14T01:47:00;33.28;;;27.40;;
38162;SDS011;23977;53.078;18.248;2022-09-14T01:49:29;34.55;;;26.48;;
38162;SDS011;23977;53.078;18.248;2022-09-14T01:52:13;31.73;;;25.85;;
38162;SDS011;23977;53.078;18.248;2022-09-14T01:54:41;32.88;;;27.27;;
38162;SDS011;23977;53.078;18.248;2022-09-14T01:57:09;32.33;;;26.90;;
38162;SDS011;23977;53.078;18.248;2022-09-14T01:59:37;33.70;;;26.58;;
38162;SDS011;23977;53.078;18.248;2022-09-14T02:02:06;35.38;;;28.23;;
38162;SDS011;23977;53.078;18.248;2022-09-14T02:05:08;32.22;;;27.08;;
38162;SDS011;23977;53.078;18.248;2022-09-14T02:07:26;33.15;;;26.40;;
38162;SDS011;23977;53.078;18.248;2022-09-14T02:09:51;31.33;;;26.10;;
38162;SDS011;23977;53.078;18.248;2022-09-14T02:12:17;32.30;;;26.92;;
38162;SDS011;23977;53.078;18.248;2022-09-14T02:14:44;35.85;;;25.40;;
38162;SDS011;23977;53.078;18.248;2022-09-14T02:17:10;28.25;;;23.17;;
38162;SDS011;23977;53.078;18.248;2022-09-14T02:19:38;30.10;;;23.35;;
38162;SDS011;23977;53.078;18.248;2022-09-14T02:22:05;27.80;;;22.70;;
38162;SDS011;23977;53.078;18.248;2022-09-14T02:24:31;26.95;;;22.17;;
38162;SDS011;23977;53.078;18.248;2022-09-14T02:26:56;28.63;;;22.65;;
38162;SDS011;23977;53.078;18.248;2022-09-14T02:29:23;28.30;;;21.98;;
38162;SDS011;23977;53.078;18.248;2022-09-14T02:31:52;29.60;;;22.08;;
38162;SDS011;23977;53.078;18.248;2022-09-14T02:39:47;27.23;;;22.60;;
38162;SDS011;23977;53.078;18.248;2022-09-14T02:42:16;24.92;;;21.17;;
38162;SDS011;23977;53.078;18.248;2022-09-14T02:44:47;27.42;;;21.58;;
38162;SDS011;23977;53.078;18.248;2022-09-14T02:47:22;26.92;;;21.00;;
38162;SDS011;23977;53.078;18.248;2022-09-14T02:52:50;27.48;;;20.67;;
38162;SDS011;23977;53.078;18.248;2022-09-14T02:55:18;26.38;;;20.95;;
38162;SDS011;23977;53.078;18.248;2022-09-14T02:57:57;25.92;;;21.25;;
38162;SDS011;23977;53.078;18.248;2022-09-14T03:00:23;25.92;;;21.23;;
38162;SDS011;23977;53.078;18.248;2022-09-14T03:02:48;25.58;;;19.60;;
38162;SDS011;23977;53.078;18.248;2022-09-14T03:05:13;23.88;;;19.73;;
38162;SDS011;23977;53.078;18.248;2022-09-14T03:07:39;27.13;;;20.65;;
38162;SDS011;23977;53.078;18.248;2022-09-14T03:10:05;26.17;;;20.75;;
38162;SDS011;23977;53.078;18.248;2022-09-14T03:12:30;24.80;;;20.80;;
38162;SDS011;23977;53.078;18.248;2022-09-14T03:14:56;26.20;;;21.85;;
38162;SDS011;23977;53.078;18.248;2022-09-14T03:17:21;32.97;;;22.23;;
38162;SDS011;23977;53.078;18.248;2022-09-14T03:19:46;26.67;;;21.52;;
38162;SDS011;23977;53.078;18.248;2022-09-14T03:22:12;28.50;;;22.02;;
38162;SDS011;23977;53.078;18.248;2022-09-14T03:24:37;29.85;;;21.98;;
38162;SDS011;23977;53.078;18.248;2022-09-14T03:27:03;27.70;;;21.08;;
38162;SDS011;23977;53.078;18.248;2022-09-14T03:29:28;27.83;;;22.23;;
38162;SDS011;23977;53.078;18.248;2022-09-14T03:31:54;31.30;;;22.45;;
38162;SDS011;23977;53.078;18.248;2022-09-14T03:34:19;26.55;;;21.05;;
38162;SDS011;23977;53.078;18.248;2022-09-14T03:36:45;29.98;;;22.65;;
38162;SDS011;23977;53.078;18.248;2022-09-14T03:39:11;27.15;;;21.58;;
38162;SDS011;23977;53.078;18.248;2022-09-14T03:41:36;27.95;;;21.95;;
38162;SDS011;23977;53.078;18.248;2022-09-14T03:44:02;28.42;;;21.15;;
38162;SDS011;23977;53.078;18.248;2022-09-14T03:46:27;29.23;;;21.23;;
38162;SDS011;23977;53.078;18.248;2022-09-14T03:48:53;28.75;;;20.75;;
38162;SDS011;23977;53.078;18.248;2022-09-14T03:51:19;26.50;;;19.42;;
38162;SDS011;23977;53.078;18.248;2022-09-14T03:53:45;28.33;;;20.40;;
38162;SDS011;23977;53.078;18.248;2022-09-14T03:56:14;24.58;;;19.40;;
38162;SDS011;23977;53.078;18.248;2022-09-14T03:58:41;24.98;;;18.42;;
38162;SDS011;23977;53.078;18.248;2022-09-14T04:01:07;24.80;;;19.05;;
38162;SDS011;23977;53.078;18.248;2022-09-14T04:03:33;24.55;;;18.92;;
38162;SDS011;23977;53.078;18.248;2022-09-14T04:05:59;23.08;;;18.27;;
38162;SDS011;23977;53.078;18.248;2022-09-14T04:08:25;25.98;;;18.77;;
38162;SDS011;23977;53.078;18.248;2022-09-14T04:10:51;25.02;;;19.27;;
38162;SDS011;23977;53.078;18.248;2022-09-14T04:13:16;24.88;;;19.38;;
38162;SDS011;23977;53.078;18.248;2022-09-14T04:15:42;25.83;;;19.35;;
38162;SDS011;23977;53.078;18.248;2022-09-14T04:18:07;26.70;;;19.50;;
38162;SDS011;23977;53.078;18.248;2022-09-14T04:20:33;23.17;;;18.40;;
38162;SDS011;23977;53.078;18.248;2022-09-14T04:22:58;26.38;;;19.08;;
38162;SDS011;23977;53.078;18.248;2022-09-14T04:25:24;22.48;;;18.70;;
38162;SDS011;23977;53.078;18.248;2022-09-14T04:27:49;26.17;;;19.38;;
38162;SDS011;23977;53.078;18.248;2022-09-14T04:30:15;24.80;;;18.05;;
38162;SDS011;23977;53.078;18.248;2022-09-14T04:32:40;23.75;;;17.65;;
38162;SDS011;23977;53.078;18.248;2022-09-14T04:35:06;24.05;;;17.23;;
38162;SDS011;23977;53.078;18.248;2022-09-14T04:37:31;22.00;;;17.30;;
38162;SDS011;23977;53.078;18.248;2022-09-14T04:39:57;21.92;;;16.58;;
38162;SDS011;23977;53.078;18.248;2022-09-14T04:42:23;20.42;;;15.45;;
38162;SDS011;23977;53.078;18.248;2022-09-14T04:44:48;21.77;;;16.05;;
38162;SDS011;23977;53.078;18.248;2022-09-14T04:47:14;19.73;;;15.75;;
38162;SDS011;23977;53.078;18.248;2022-09-14T04:49:40;21.27;;;17.02;;
38162;SDS011;23977;53.078;18.248;2022-09-14T04:52:05;22.30;;;15.98;;
38162;SDS011;23977;53.078;18.248;2022-09-14T04:54:31;21.38;;;16.42;;
38162;SDS011;23977;53.078;18.248;2022-09-14T04:56:56;20.15;;;15.13;;
38162;SDS011;23977;53.078;18.248;2022-09-14T04:59:22;25.55;;;17.15;;
38162;SDS011;23977;53.078;18.248;2022-09-14T05:01:47;19.17;;;14.20;;
38162;SDS011;23977;53.078;18.248;2022-09-14T05:04:13;17.08;;;12.50;;
38162;SDS011;23977;53.078;18.248;2022-09-14T05:06:39;16.13;;;11.13;;
38162;SDS011;23977;53.078;18.248;2022-09-14T05:09:06;12.90;;;9.82;;
38162;SDS011;23977;53.078;18.248;2022-09-14T05:11:33;12.27;;;9.60;;
38162;SDS011;23977;53.078;18.248;2022-09-14T05:14:00;13.43;;;10.18;;
38162;SDS011;23977;53.078;18.248;2022-09-14T05:16:26;11.65;;;8.93;;
38162;SDS011;23977;53.078;18.248;2022-09-14T05:18:53;12.77;;;8.70;;
38162;SDS011;23977;53.078;18.248;2022-09-14T05:21:19;12.00;;;8.25;;
38162;SDS011;23977;53.078;18.248;2022-09-14T05:23:45;11.75;;;8.02;;
38162;SDS011;23977;53.078;18.248;2022-09-14T05:26:13;11.70;;;8.30;;
38162;SDS011;23977;53.078;18.248;2022-09-14T05:28:39;9.57;;;6.97;;
38162;SDS011;23977;53.078;18.248;2022-09-14T05:31:05;11.30;;;7.10;;
38162;SDS011;23977;53.078;18.248;2022-09-14T05:33:32;10.73;;;8.15;;
38162;SDS011;23977;53.078;18.248;2022-09-14T05:36:02;11.90;;;7.90;;
38162;SDS011;23977;53.078;18.248;2022-09-14T05:38:32;10.02;;;7.30;;
38162;SDS011;23977;53.078;18.248;2022-09-14T05:41:00;9.65;;;7.30;;
38162;SDS011;23977;53.078;18.248;2022-09-14T05:43:29;10.13;;;6.82;;
38162;SDS011;23977;53.078;18.248;2022-09-14T05:46:03;12.50;;;8.10;;
38162;SDS011;23977;53.078;18.248;2022-09-14T05:48:32;10.02;;;7.43;;
38162;SDS011;23977;53.078;18.248;2022-09-14T05:51:02;10.73;;;6.45;;
38162;SDS011;23977;53.078;18.248;2022-09-14T05:53:30;9.70;;;6.50;;
38162;SDS011;23977;53.078;18.248;2022-09-14T05:56:02;9.77;;;6.22;;
38162;SDS011;23977;53.078;18.248;2022-09-14T05:58:29;11.80;;;7.03;;
38162;SDS011;23977;53.078;18.248;2022-09-14T06:00:54;10.07;;;5.63;;
38162;SDS011;23977;53.078;18.248;2022-09-14T06:03:20;7.70;;;5.25;;
38162;SDS011;23977;53.078;18.248;2022-09-14T06:05:46;10.00;;;5.68;;
38162;SDS011;23977;53.078;18.248;2022-09-14T06:08:11;7.97;;;5.28;;
38162;SDS011;23977;53.078;18.248;2022-09-14T06:10:37;9.82;;;5.32;;
38162;SDS011;23977;53.078;18.248;2022-09-14T06:13:02;7.88;;;4.47;;
38162;SDS011;23977;53.078;18.248;2022-09-14T06:15:28;9.50;;;4.60;;
38162;SDS011;23977;53.078;18.248;2022-09-14T06:17:53;9.38;;;4.50;;
38162;SDS011;23977;53.078;18.248;2022-09-14T06:20:19;6.38;;;3.72;;
38162;SDS011;23977;53.078;18.248;2022-09-14T06:22:44;6.57;;;5.28;;
38162;SDS011;23977;53.078;18.248;2022-09-14T06:25:10;7.70;;;3.72;;
38162;SDS011;23977;53.078;18.248;2022-09-14T06:27:35;7.68;;;3.90;;
38162;SDS011;23977;53.078;18.248;2022-09-14T06:30:01;8.38;;;3.97;;
38162;SDS011;23977;53.078;18.248;2022-09-14T06:32:28;5.50;;;3.25;;
38162;SDS011;23977;53.078;18.248;2022-09-14T06:34:54;7.50;;;3.50;;
38162;SDS011;23977;53.078;18.248;2022-09-14T06:37:19;5.70;;;3.25;;
38162;SDS011;23977;53.078;18.248;2022-09-14T06:39:45;6.22;;;2.78;;
38162;SDS011;23977;53.078;18.248;2022-09-14T06:42:10;5.10;;;2.80;;
38162;SDS011;23977;53.078;18.248;2022-09-14T06:44:36;5.50;;;2.80;;
38162;SDS011;23977;53.078;18.248;2022-09-14T06:47:01;5.28;;;2.80;;
38162;SDS011;23977;53.078;18.248;2022-09-14T06:49:27;5.63;;;2.88;;
38162;SDS011;23977;53.078;18.248;2022-09-14T06:51:52;6.65;;;2.67;;
38162;SDS011;23977;53.078;18.248;2022-09-14T06:54:20;6.15;;;2.65;;
38162;SDS011;23977;53.078;18.248;2022-09-14T06:56:46;5.45;;;2.70;;
38162;SDS011;23977;53.078;18.248;2022-09-14T06:59:13;6.32;;;2.70;;
38162;SDS011;23977;53.078;18.248;2022-09-14T07:01:40;5.90;;;2.63;;
38162;SDS011;23977;53.078;18.248;2022-09-14T07:04:05;6.35;;;2.55;;
38162;SDS011;23977;53.078;18.248;2022-09-14T07:06:41;7.22;;;2.92;;
38162;SDS011;23977;53.078;18.248;2022-09-14T07:09:07;6.70;;;2.70;;
38162;SDS011;23977;53.078;18.248;2022-09-14T07:11:33;6.40;;;2.60;;
38162;SDS011;23977;53.078;18.248;2022-09-14T07:13:58;8.02;;;2.58;;
38162;SDS011;23977;53.078;18.248;2022-09-14T07:16:27;8.77;;;2.83;;
38162;SDS011;23977;53.078;18.248;2022-09-14T07:18:54;5.82;;;2.40;;
38162;SDS011;23977;53.078;18.248;2022-09-14T07:21:20;6.07;;;2.40;;
38162;SDS011;23977;53.078;18.248;2022-09-14T07:23:46;7.18;;;2.50;;
38162;SDS011;23977;53.078;18.248;2022-09-14T07:26:15;7.30;;;2.45;;
38162;SDS011;23977;53.078;18.248;2022-09-14T07:28:41;7.13;;;2.30;;
38162;SDS011;23977;53.078;18.248;2022-09-14T07:31:17;7.45;;;2.17;;
38162;SDS011;23977;53.078;18.248;2022-09-14T07:33:43;5.43;;;2.10;;
38162;SDS011;23977;53.078;18.248;2022-09-14T07:36:10;5.50;;;2.40;;
38162;SDS011;23977;53.078;18.248;2022-09-14T07:38:36;7.63;;;2.10;;
38162;SDS011;23977;53.078;18.248;2022-09-14T07:41:02;6.47;;;2.00;;
38162;SDS011;23977;53.078;18.248;2022-09-14T07:43:31;7.65;;;2.20;;
38162;SDS011;23977;53.078;18.248;2022-09-14T07:46:02;6.38;;;1.92;;
38162;SDS011;23977;53.078;18.248;2022-09-14T07:48:29;7.35;;;1.90;;
38162;SDS011;23977;53.078;18.248;2022-09-14T07:50:58;7.55;;;1.95;;
38162;SDS011;23977;53.078;18.248;2022-09-14T07:53:24;6.25;;;2.00;;
38162;SDS011;23977;53.078;18.248;2022-09-14T07:55:49;4.85;;;1.90;;
38162;SDS011;23977;53.078;18.248;2022-09-14T07:58:15;7.30;;;2.00;;
38162;SDS011;23977;53.078;18.248;2022-09-14T08:00:40;5.63;;;1.80;;
38162;SDS011;23977;53.078;18.248;2022-09-14T08:03:06;9.63;;;1.98;;
38162;SDS011;23977;53.078;18.248;2022-09-14T08:05:33;5.10;;;1.77;;
38162;SDS011;23977;53.078;18.248;2022-09-14T08:07:58;5.35;;;1.90;;
38162;SDS011;23977;53.078;18.248;2022-09-14T08:10:24;5.45;;;1.73;;
38162;SDS011;23977;53.078;18.248;2022-09-14T08:12:51;6.15;;;1.90;;
38162;SDS011;23977;53.078;18.248;2022-09-14T08:15:17;6.15;;;1.90;;
38162;SDS011;23977;53.078;18.248;2022-09-14T08:17:42;7.03;;;2.17;;
38162;SDS011;23977;53.078;18.248;2022-09-14T08:20:08;6.68;;;1.90;;
38162;SDS011;23977;53.078;18.248;2022-09-14T08:22:34;5.70;;;1.90;;
38162;SDS011;23977;53.078;18.248;2022-09-14T08:25:00;8.95;;;1.88;;
38162;SDS011;23977;53.078;18.248;2022-09-14T08:27:27;5.22;;;1.70;;
38162;SDS011;23977;53.078;18.248;2022-09-14T08:29:52;8.43;;;1.70;;
38162;SDS011;23977;53.078;18.248;2022-09-14T08:32:18;5.18;;;1.80;;
38162;SDS011;23977;53.078;18.248;2022-09-14T08:34:44;5.20;;;1.48;;
38162;SDS011;23977;53.078;18.248;2022-09-14T08:37:09;4.63;;;1.33;;
38162;SDS011;23977;53.078;18.248;2022-09-14T08:39:36;6.75;;;1.67;;
38162;SDS011;23977;53.078;18.248;2022-09-14T08:42:01;6.70;;;1.60;;
38162;SDS011;23977;53.078;18.248;2022-09-14T08:44:34;5.63;;;1.27;;
38162;SDS011;23977;53.078;18.248;2022-09-14T08:47:03;5.63;;;1.48;;
38162;SDS011;23977;53.078;18.248;2022-09-14T08:52:04;5.03;;;2.47;;
38162;SDS011;23977;53.078;18.248;2022-09-14T08:54:30;6.10;;;1.80;;
38162;SDS011;23977;53.078;18.248;2022-09-14T08:56:58;4.20;;;1.38;;
38162;SDS011;23977;53.078;18.248;2022-09-14T08:59:37;4.78;;;1.10;;
38162;SDS011;23977;53.078;18.248;2022-09-14T09:10:13;4.70;;;1.40;;
38162;SDS011;23977;53.078;18.248;2022-09-14T09:12:51;3.75;;;1.08;;
38162;SDS011;23977;53.078;18.248;2022-09-14T09:15:20;3.83;;;1.10;;
38162;SDS011;23977;53.078;18.248;2022-09-14T09:17:48;5.10;;;1.40;;
38162;SDS011;23977;53.078;18.248;2022-09-14T09:20:34;3.92;;;1.10;;
38162;SDS011;23977;53.078;18.248;2022-09-14T09:23:16;4.25;;;1.17;;
38162;SDS011;23977;53.078;18.248;2022-09-14T09:25:54;4.95;;;1.10;;
38162;SDS011;23977;53.078;18.248;2022-09-14T09:28:22;4.10;;;1.25;;
38162;SDS011;23977;53.078;18.248;2022-09-14T09:30:50;5.70;;;1.10;;
38162;SDS011;23977;53.078;18.248;2022-09-14T09:33:21;4.80;;;1.23;;
38162;SDS011;23977;53.078;18.248;2022-09-14T09:35:49;4.82;;;1.35;;
38162;SDS011;23977;53.078;18.248;2022-09-14T09:38:15;4.13;;;1.58;;
38162;SDS011;23977;53.078;18.248;2022-09-14T09:40:44;7.05;;;3.92;;
38162;SDS011;23977;53.078;18.248;2022-09-14T09:43:12;4.57;;;1.30;;
38162;SDS011;23977;53.078;18.248;2022-09-14T09:45:45;5.50;;;1.42;;
38162;SDS011;23977;53.078;18.248;2022-09-14T09:48:12;3.55;;;1.40;;
38162;SDS011;23977;53.078;18.248;2022-09-14T09:53:35;3.72;;;1.00;;
38162;SDS011;23977;53.078;18.248;2022-09-14T09:56:02;4.75;;;1.00;;
38162;SDS011;23977;53.078;18.248;2022-09-14T10:00:55;3.58;;;1.08;;
38162;SDS011;23977;53.078;18.248;2022-09-14T10:03:29;4.72;;;1.02;;
38162;SDS011;23977;53.078;18.248;2022-09-14T10:05:59;4.15;;;1.00;;
38162;SDS011;23977;53.078;18.248;2022-09-14T10:08:26;3.72;;;1.10;;
38162;SDS011;23977;53.078;18.248;2022-09-14T10:10:52;3.97;;;1.00;;
38162;SDS011;23977;53.078;18.248;2022-09-14T10:15:43;3.53;;;0.82;;
38162;SDS011;23977;53.078;18.248;2022-09-14T10:20:38;4.97;;;1.20;;
38162;SDS011;23977;53.078;18.248;2022-09-14T10:23:38;12.48;;;8.15;;
38162;SDS011;23977;53.078;18.248;2022-09-14T10:28:40;4.43;;;1.00;;
38162;SDS011;23977;53.078;18.248;2022-09-14T10:33:33;2.83;;;0.88;;
38162;SDS011;23977;53.078;18.248;2022-09-14T10:38:45;3.55;;;0.90;;
38162;SDS011;23977;53.078;18.248;2022-09-14T10:43:57;4.10;;;1.00;;
38162;SDS011;23977;53.078;18.248;2022-09-14T10:46:33;4.85;;;1.10;;
38162;SDS011;23977;53.078;18.248;2022-09-14T10:49:22;5.10;;;0.80;;
38162;SDS011;23977;53.078;18.248;2022-09-14T10:56:54;3.80;;;0.95;;
38162;SDS011;23977;53.078;18.248;2022-09-14T11:02:08;5.32;;;1.15;;
38162;SDS011;23977;53.078;18.248;2022-09-14T11:04:42;3.17;;;0.70;;
38162;SDS011;23977;53.078;18.248;2022-09-14T11:07:14;5.10;;;1.00;;
38162;SDS011;23977;53.078;18.248;2022-09-14T11:09:55;5.38;;;1.10;;
38162;SDS011;23977;53.078;18.248;2022-09-14T11:15:09;6.32;;;1.92;;
38162;SDS011;23977;53.078;18.248;2022-09-14T11:28:23;5.28;;;1.10;;
38162;SDS011;23977;53.078;18.248;2022-09-14T11:33:30;3.90;;;1.20;;
38162;SDS011;23977;53.078;18.248;2022-09-14T11:36:00;5.30;;;1.25;;
38162;SDS011;23977;53.078;18.248;2022-09-14T11:38:28;5.05;;;1.30;;
38162;SDS011;23977;53.078;18.248;2022-09-14T11:50:45;4.80;;;1.23;;
38162;SDS011;23977;53.078;18.248;2022-09-14T11:53:15;6.05;;;1.45;;
38162;SDS011;23977;53.078;18.248;2022-09-14T11:55:44;4.90;;;1.50;;
38162;SDS011;23977;53.078;18.248;2022-09-14T11:58:16;7.03;;;1.92;;
38162;SDS011;23977;53.078;18.248;2022-09-14T12:00:44;6.55;;;1.33;;
38162;SDS011;23977;53.078;18.248;2022-09-14T12:03:11;7.38;;;1.65;;
38162;SDS011;23977;53.078;18.248;2022-09-14T12:05:38;5.15;;;1.48;;
38162;SDS011;23977;53.078;18.248;2022-09-14T12:08:23;4.10;;;1.50;;
38162;SDS011;23977;53.078;18.248;2022-09-14T12:10:59;7.18;;;3.00;;
38162;SDS011;23977;53.078;18.248;2022-09-14T12:13:25;5.22;;;1.70;;
38162;SDS011;23977;53.078;18.248;2022-09-14T12:16:03;7.07;;;1.88;;
38162;SDS011;23977;53.078;18.248;2022-09-14T12:18:30;4.40;;;1.50;;
38162;SDS011;23977;53.078;18.248;2022-09-14T12:21:00;7.03;;;2.33;;
38162;SDS011;23977;53.078;18.248;2022-09-14T12:36:06;4.88;;;1.52;;
38162;SDS011;23977;53.078;18.248;2022-09-14T12:41:01;6.35;;;1.75;;
38162;SDS011;23977;53.078;18.248;2022-09-14T12:46:09;6.90;;;2.45;;
38162;SDS011;23977;53.078;18.248;2022-09-14T12:51:18;5.68;;;1.83;;
38162;SDS011;23977;53.078;18.248;2022-09-14T12:53:47;4.55;;;1.63;;
38162;SDS011;23977;53.078;18.248;2022-09-14T12:56:18;5.82;;;1.88;;
38162;SDS011;23977;53.078;18.248;2022-09-14T12:58:57;6.60;;;1.67;;
38162;SDS011;23977;53.078;18.248;2022-09-14T13:01:39;5.13;;;1.30;;
38162;SDS011;23977;53.078;18.248;2022-09-14T13:04:12;5.45;;;1.60;;
38162;SDS011;23977;53.078;18.248;2022-09-14T13:06:39;6.38;;;1.50;;
38162;SDS011;23977;53.078;18.248;2022-09-14T13:09:10;5.28;;;1.55;;
38162;SDS011;23977;53.078;18.248;2022-09-14T13:11:39;7.43;;;1.80;;
38162;SDS011;23977;53.078;18.248;2022-09-14T13:14:05;6.00;;;1.50;;
38162;SDS011;23977;53.078;18.248;2022-09-14T13:16:41;6.15;;;1.75;;
38162;SDS011;23977;53.078;18.248;2022-09-14T13:19:21;7.80;;;2.85;;
38162;SDS011;23977;53.078;18.248;2022-09-14T13:21:48;7.97;;;1.63;;
38162;SDS011;23977;53.078;18.248;2022-09-14T13:26:45;5.75;;;1.50;;
38162;SDS011;23977;53.078;18.248;2022-09-14T13:29:11;7.43;;;2.22;;
38162;SDS011;23977;53.078;18.248;2022-09-14T13:31:38;6.70;;;1.60;;
38162;SDS011;23977;53.078;18.248;2022-09-14T13:34:05;4.75;;;1.63;;
38162;SDS011;23977;53.078;18.248;2022-09-14T13:36:33;6.03;;;1.50;;
38162;SDS011;23977;53.078;18.248;2022-09-14T13:38:59;7.95;;;2.40;;
38162;SDS011;23977;53.078;18.248;2022-09-14T13:41:28;4.95;;;1.70;;
38162;SDS011;23977;53.078;18.248;2022-09-14T13:43:54;5.60;;;1.60;;
38162;SDS011;23977;53.078;18.248;2022-09-14T13:46:21;6.72;;;1.50;;
38162;SDS011;23977;53.078;18.248;2022-09-14T13:48:47;4.97;;;1.60;;
38162;SDS011;23977;53.078;18.248;2022-09-14T13:51:12;4.85;;;2.00;;
38162;SDS011;23977;53.078;18.248;2022-09-14T13:56:14;6.55;;;1.60;;
38162;SDS011;23977;53.078;18.248;2022-09-14T13:58:40;5.68;;;1.73;;
38162;SDS011;23977;53.078;18.248;2022-09-14T14:01:05;4.50;;;1.58;;
38162;SDS011;23977;53.078;18.248;2022-09-14T14:03:45;7.53;;;1.95;;
38162;SDS011;23977;53.078;18.248;2022-09-14T14:06:16;6.63;;;2.00;;
38162;SDS011;23977;53.078;18.248;2022-09-14T14:08:43;7.90;;;1.77;;
38162;SDS011;23977;53.078;18.248;2022-09-14T14:11:09;5.00;;;1.67;;
38162;SDS011;23977;53.078;18.248;2022-09-14T14:13:35;7.47;;;1.90;;
38162;SDS011;23977;53.078;18.248;2022-09-14T14:18:40;5.60;;;1.50;;
38162;SDS011;23977;53.078;18.248;2022-09-14T14:23:34;4.60;;;1.48;;
38162;SDS011;23977;53.078;18.248;2022-09-14T14:26:13;6.07;;;1.75;;
38162;SDS011;23977;53.078;18.248;2022-09-14T14:28:40;6.90;;;1.50;;
38162;SDS011;23977;53.078;18.248;2022-09-14T14:31:06;4.80;;;1.70;;
38162;SDS011;23977;53.078;18.248;2022-09-14T14:33:42;5.13;;;1.60;;
38162;SDS011;23977;53.078;18.248;2022-09-14T14:36:08;6.25;;;1.63;;
38162;SDS011;23977;53.078;18.248;2022-09-14T14:38:35;4.47;;;1.50;;
38162;SDS011;23977;53.078;18.248;2022-09-14T14:41:00;6.65;;;1.95;;
38162;SDS011;23977;53.078;18.248;2022-09-14T14:43:26;5.68;;;1.55;;
38162;SDS011;23977;53.078;18.248;2022-09-14T14:45:54;5.53;;;1.70;;
38162;SDS011;23977;53.078;18.248;2022-09-14T14:48:20;7.80;;;1.73;;
38162;SDS011;23977;53.078;18.248;2022-09-14T14:50:46;5.70;;;1.52;;
38162;SDS011;23977;53.078;18.248;2022-09-14T14:53:12;6.05;;;1.70;;
38162;SDS011;23977;53.078;18.248;2022-09-14T14:55:38;5.82;;;1.60;;
38162;SDS011;23977;53.078;18.248;2022-09-14T14:58:06;5.43;;;1.60;;
38162;SDS011;23977;53.078;18.248;2022-09-14T15:00:35;6.00;;;1.70;;
38162;SDS011;23977;53.078;18.248;2022-09-14T15:03:01;6.70;;;1.88;;
38162;SDS011;23977;53.078;18.248;2022-09-14T15:05:27;5.80;;;1.67;;
38162;SDS011;23977;53.078;18.248;2022-09-14T15:07:53;6.32;;;1.70;;
38162;SDS011;23977;53.078;18.248;2022-09-14T15:10:21;5.00;;;1.58;;
38162;SDS011;23977;53.078;18.248;2022-09-14T15:12:47;5.85;;;1.67;;
38162;SDS011;23977;53.078;18.248;2022-09-14T15:15:13;5.03;;;1.73;;
38162;SDS011;23977;53.078;18.248;2022-09-14T15:17:39;4.78;;;1.70;;
38162;SDS011;23977;53.078;18.248;2022-09-14T15:20:06;5.90;;;1.75;;
38162;SDS011;23977;53.078;18.248;2022-09-14T15:22:31;9.30;;;2.10;;
38162;SDS011;23977;53.078;18.248;2022-09-14T15:24:57;6.25;;;2.00;;
38162;SDS011;23977;53.078;18.248;2022-09-14T15:27:22;5.32;;;1.63;;
38162;SDS011;23977;53.078;18.248;2022-09-14T15:29:48;6.50;;;1.88;;
38162;SDS011;23977;53.078;18.248;2022-09-14T15:32:14;5.72;;;1.98;;
38162;SDS011;23977;53.078;18.248;2022-09-14T15:34:40;5.32;;;1.75;;
38162;SDS011;23977;53.078;18.248;2022-09-14T15:37:05;8.30;;;2.03;;
38162;SDS011;23977;53.078;18.248;2022-09-14T15:39:31;5.80;;;1.92;;
38162;SDS011;23977;53.078;18.248;2022-09-14T15:41:57;6.93;;;1.98;;
38162;SDS011;23977;53.078;18.248;2022-09-14T15:44:23;6.05;;;1.85;;
38162;SDS011;23977;53.078;18.248;2022-09-14T15:46:49;5.53;;;2.20;;
38162;SDS011;23977;53.078;18.248;2022-09-14T15:49:16;6.22;;;2.22;;
38162;SDS011;23977;53.078;18.248;2022-09-14T15:51:45;8.88;;;2.60;;
38162;SDS011;23977;53.078;18.248;2022-09-14T15:54:11;6.20;;;2.50;;
38162;SDS011;23977;53.078;18.248;2022-09-14T15:56:37;6.13;;;2.35;;
38162;SDS011;23977;53.078;18.248;2022-09-14T15:59:03;5.63;;;2.20;;
38162;SDS011;23977;53.078;18.248;2022-09-14T16:01:29;5.88;;;2.25;;
38162;SDS011;23977;53.078;18.248;2022-09-14T16:03:56;5.28;;;2.15;;
38162;SDS011;23977;53.078;18.248;2022-09-14T16:06:22;6.45;;;2.35;;
38162;SDS011;23977;53.078;18.248;2022-09-14T16:08:47;6.60;;;2.42;;
38162;SDS011;23977;53.078;18.248;2022-09-14T16:11:13;7.35;;;2.45;;
38162;SDS011;23977;53.078;18.248;2022-09-14T16:13:39;6.60;;;2.28;;
38162;SDS011;23977;53.078;18.248;2022-09-14T16:16:08;7.05;;;2.40;;
38162;SDS011;23977;53.078;18.248;2022-09-14T16:18:36;7.72;;;2.25;;
38162;SDS011;23977;53.078;18.248;2022-09-14T16:23:31;8.13;;;2.40;;
38162;SDS011;23977;53.078;18.248;2022-09-14T16:25:57;5.72;;;2.17;;